Naikai2 — JD2433 — position and weather

sailwx.info

Track history (hours):
 
Tides and Currents Weather Stations Pressure Air Temp Water Temp Dewpoint Dewpoint Depression Visibility Wind Speed Wind Dir Waves Ship Positions

Naikai2

Last reported at 2014-Jul-29 02:33 UTC. Time now 2014-Jul-29 10:48 UTC.
Position N 34°39' E 135°11'.

Length 28 m; draft 2.2 m.

Type: Other ship. MMSI: 431000283.

Date/timePositionNaut miles runAvg speedWind from/ knotsBaromVisibWave heightAir tempDewpointWater temp
2014-Jul-29 02:33N 34°39' E 135°11'1110.4
2014-Jul-29 01:31N 34°37' E 134°58'6 6.5
2014-Jul-29 00:33N 34°36' E 135°05'4 3.7
2014-Jul-28 23:33N 34°36' E 135°01'0 0.0
2014-Jul-28 22:33N 34°36' E 135°01'0 0.0
2014-Jul-28 21:33N 34°36' E 135°01'0 0.0
2014-Jul-28 20:34N 34°36' E 135°01'3 2.6
2014-Jul-28 19:31N 34°37' E 134°58'7 7.4
2014-Jul-28 18:33N 34°35' E 135°06'5 5.1
2014-Jul-28 17:33N 34°39' E 135°10'8 0.6
2014-Jul-28 05:33N 34°32' E 135°07'1713.8
2014-Jul-28 04:19N 34°16' E 134°59'6 8.1
2014-Jul-28 03:33N 34°22' E 135°00'1313.0
2014-Jul-28 02:34N 34°34' E 135°07'19 3.0
2014-Jul-27 20:23N 34°41' E 134°47'1113.0
2014-Jul-27 19:33N 34°38' E 134°59'7 7.1
2014-Jul-27 18:33N 34°35' E 135°07'4 4.2
2014-Jul-27 17:33N 34°39' E 135°10'3 0.2
2014-Jul-27 03:33N 34°37' E 135°06'9 2.1
2014-Jul-26 23:31N 34°36' E 134°56'9 9.8
2014-Jul-26 22:33N 34°35' E 135°07'8 7.6
2014-Jul-26 21:30N 34°27' E 135°04'1311.4
2014-Jul-26 20:23N 34°15' E 134°59'1 1.7
2014-Jul-26 19:32N 34°16' E 134°59'6 2.9
2014-Jul-26 17:34N 34°21' E 134°54'0 0.0
2014-Jul-26 16:31N 34°21' E 134°54'0 0.0
2014-Jul-26 13:19N 34°21' E 134°54'0 0.0
2014-Jul-26 12:33N 34°21' E 134°54'0 0.0
2014-Jul-26 11:15N 34°21' E 134°54'0 0.0
2014-Jul-26 10:29N 34°21' E 134°54'0 0.0
2014-Jul-26 08:12N 34°21' E 134°54'0 0.0
2014-Jul-26 07:06N 34°21' E 134°54'0 0.0
2014-Jul-26 06:32N 34°21' E 134°54'0 0.0
2014-Jul-26 05:33N 34°21' E 134°54'0 0.0
2014-Jul-26 04:34N 34°21' E 134°54'5 5.2
2014-Jul-26 03:33N 34°25' E 134°58'1515.0
2014-Jul-26 02:33N 34°37' E 135°09'3 2.6
2014-Jul-26 01:33N 34°39' E 135°10'0 0.0
2014-Jul-25 09:17N 34°39' E 135°10'811.4
2014-Jul-25 08:33N 34°31' E 135°06'1615.6
2014-Jul-25 07:31N 34°16' E 134°59'7 6.8
2014-Jul-25 06:32N 34°23' E 135°00'1212.5
2014-Jul-25 05:33N 34°33' E 135°08'13 2.5
2014-Jul-25 00:24N 34°37' E 134°53'7 7.9
2014-Jul-24 23:32N 34°37' E 135°01'7 6.8
2014-Jul-24 22:33N 34°36' E 135°09'3 3.4
2014-Jul-24 21:33N 34°39' E 135°10'4 0.2
2014-Jul-24 05:33N 34°37' E 135°06'8 1.9
2014-Jul-24 01:33N 34°37' E 134°56'9 9.0
2014-Jul-24 00:33N 34°35' E 135°07'7 7.0
2014-Jul-23 23:33N 34°29' E 135°05'1212.1
2014-Jul-23 22:31N 34°17' E 134°59'4 3.5
2014-Jul-23 21:31N 34°14' E 135°00'1010.2
2014-Jul-23 20:31N 34°24' E 135°00'1313.8
2014-Jul-23 19:33N 34°35' E 135°08'5 0.1
2014-Jul-22 06:33N 34°40' E 135°11'1110.6
2014-Jul-22 05:33N 34°30' E 135°06'1615.2
2014-Jul-22 04:31N 34°16' E 134°58'1111.9
2014-Jul-22 03:33N 34°27' E 135°02'10 9.3
2014-Jul-22 02:28N 34°37' E 135°01'12 3.0
2014-Jul-21 22:32N 34°41' E 134°47'1212.6
2014-Jul-21 21:33N 34°37' E 135°02'7 6.7
2014-Jul-21 20:33N 34°39' E 135°10'0 0.0
2014-Jul-21 20:18N 34°39' E 135°10'0 0.0
2014-Jul-21 06:32N 34°39' E 135°10'1413.9
2014-Jul-21 05:33N 34°33' E 135°25'2 2.3
2014-Jul-21 04:33N 34°33' E 135°23'8 7.7
2014-Jul-21 03:33N 34°36' E 135°14'4 4.1
2014-Jul-21 02:33N 34°39' E 135°10'1 0.3
2014-Jul-21 00:21N 34°39' E 135°11'1 0.9
2014-Jul-20 23:33N 34°38' E 135°10'13 3.1
2014-Jul-20 19:18N 34°36' E 134°54'911.9
2014-Jul-20 18:32N 34°36' E 135°05'8 7.5
2014-Jul-20 17:31N 34°28' E 135°05'1212.3
2014-Jul-20 16:33N 34°17' E 134°59'7 6.5
2014-Jul-20 15:33N 34°11' E 135°02'6 6.2
2014-Jul-20 14:33N 34°13' E 135°09'0 0.0
2014-Jul-20 05:20N 34°13' E 135°09'1011.6
2014-Jul-20 04:30N 34°14' E 134°57'1212.9
2014-Jul-20 03:33N 34°26' E 135°02'10 9.7
2014-Jul-20 02:33N 34°35' E 135°04'19 0.9
2014-Jul-19 04:30N 34°40' E 134°42'9 8.3
2014-Jul-19 03:26N 34°34' E 134°49'  
Track history (hours):
 
Tides and Currents Weather Stations Pressure Air Temp Water Temp Dewpoint Dewpoint Depression Visibility Wind Speed Wind Dir Waves Ship Positions

Naikai2

Last reported at 2014-Jul-29 02:33 UTC. Time now 2014-Jul-29 10:48 UTC.
Position N 34°39' E 135°11'.

Length 28 m; draft 2.2 m.

Type: Other ship. MMSI: 431000283.

Date/timePositionNaut miles runAvg speedWind from/ knotsBaromVisibWave heightAir tempDewpointWater temp
2014-Jul-29 02:33N 34°39' E 135°11'1110.4
2014-Jul-29 01:31N 34°37' E 134°58'6 6.5
2014-Jul-29 00:33N 34°36' E 135°05'4 3.7
2014-Jul-28 23:33N 34°36' E 135°01'0 0.0
2014-Jul-28 22:33N 34°36' E 135°01'0 0.0
2014-Jul-28 21:33N 34°36' E 135°01'0 0.0
2014-Jul-28 20:34N 34°36' E 135°01'3 2.6
2014-Jul-28 19:31N 34°37' E 134°58'7 7.4
2014-Jul-28 18:33N 34°35' E 135°06'5 5.1
2014-Jul-28 17:33N 34°39' E 135°10'8 0.6
2014-Jul-28 05:33N 34°32' E 135°07'1713.8
2014-Jul-28 04:19N 34°16' E 134°59'6 8.1
2014-Jul-28 03:33N 34°22' E 135°00'1313.0
2014-Jul-28 02:34N 34°34' E 135°07'19 3.0
2014-Jul-27 20:23N 34°41' E 134°47'1113.0
2014-Jul-27 19:33N 34°38' E 134°59'7 7.1
2014-Jul-27 18:33N 34°35' E 135°07'4 4.2
2014-Jul-27 17:33N 34°39' E 135°10'3 0.2
2014-Jul-27 03:33N 34°37' E 135°06'9 2.1
2014-Jul-26 23:31N 34°36' E 134°56'9 9.8
2014-Jul-26 22:33N 34°35' E 135°07'8 7.6
2014-Jul-26 21:30N 34°27' E 135°04'1311.4
2014-Jul-26 20:23N 34°15' E 134°59'1 1.7
2014-Jul-26 19:32N 34°16' E 134°59'6 2.9
2014-Jul-26 17:34N 34°21' E 134°54'0 0.0
2014-Jul-26 16:31N 34°21' E 134°54'0 0.0
2014-Jul-26 13:19N 34°21' E 134°54'0 0.0
2014-Jul-26 12:33N 34°21' E 134°54'0 0.0
2014-Jul-26 11:15N 34°21' E 134°54'0 0.0
2014-Jul-26 10:29N 34°21' E 134°54'0 0.0
2014-Jul-26 08:12N 34°21' E 134°54'0 0.0
2014-Jul-26 07:06N 34°21' E 134°54'0 0.0
2014-Jul-26 06:32N 34°21' E 134°54'0 0.0
2014-Jul-26 05:33N 34°21' E 134°54'0 0.0
2014-Jul-26 04:34N 34°21' E 134°54'5 5.2
2014-Jul-26 03:33N 34°25' E 134°58'1515.0
2014-Jul-26 02:33N 34°37' E 135°09'3 2.6
2014-Jul-26 01:33N 34°39' E 135°10'0 0.0
2014-Jul-25 09:17N 34°39' E 135°10'811.4
2014-Jul-25 08:33N 34°31' E 135°06'1615.6
2014-Jul-25 07:31N 34°16' E 134°59'7 6.8
2014-Jul-25 06:32N 34°23' E 135°00'1212.5
2014-Jul-25 05:33N 34°33' E 135°08'13 2.5
2014-Jul-25 00:24N 34°37' E 134°53'7 7.9
2014-Jul-24 23:32N 34°37' E 135°01'7 6.8
2014-Jul-24 22:33N 34°36' E 135°09'3 3.4
2014-Jul-24 21:33N 34°39' E 135°10'4 0.2
2014-Jul-24 05:33N 34°37' E 135°06'8 1.9
2014-Jul-24 01:33N 34°37' E 134°56'9 9.0
2014-Jul-24 00:33N 34°35' E 135°07'7 7.0
2014-Jul-23 23:33N 34°29' E 135°05'1212.1
2014-Jul-23 22:31N 34°17' E 134°59'4 3.5
2014-Jul-23 21:31N 34°14' E 135°00'1010.2
2014-Jul-23 20:31N 34°24' E 135°00'1313.8
2014-Jul-23 19:33N 34°35' E 135°08'5 0.1
2014-Jul-22 06:33N 34°40' E 135°11'1110.6
2014-Jul-22 05:33N 34°30' E 135°06'1615.2
2014-Jul-22 04:31N 34°16' E 134°58'1111.9
2014-Jul-22 03:33N 34°27' E 135°02'10 9.3
2014-Jul-22 02:28N 34°37' E 135°01'12 3.0
2014-Jul-21 22:32N 34°41' E 134°47'1212.6
2014-Jul-21 21:33N 34°37' E 135°02'7 6.7
2014-Jul-21 20:33N 34°39' E 135°10'0 0.0
2014-Jul-21 20:18N 34°39' E 135°10'0 0.0
2014-Jul-21 06:32N 34°39' E 135°10'1413.9
2014-Jul-21 05:33N 34°33' E 135°25'2 2.3
2014-Jul-21 04:33N 34°33' E 135°23'8 7.7
2014-Jul-21 03:33N 34°36' E 135°14'4 4.1
2014-Jul-21 02:33N 34°39' E 135°10'1 0.3
2014-Jul-21 00:21N 34°39' E 135°11'1 0.9
2014-Jul-20 23:33N 34°38' E 135°10'13 3.1
2014-Jul-20 19:18N 34°36' E 134°54'911.9
2014-Jul-20 18:32N 34°36' E 135°05'8 7.5
2014-Jul-20 17:31N 34°28' E 135°05'1212.3
2014-Jul-20 16:33N 34°17' E 134°59'7 6.5
2014-Jul-20 15:33N 34°11' E 135°02'6 6.2
2014-Jul-20 14:33N 34°13' E 135°09'0 0.0
2014-Jul-20 05:20N 34°13' E 135°09'1011.6
2014-Jul-20 04:30N 34°14' E 134°57'1212.9
2014-Jul-20 03:33N 34°26' E 135°02'10 9.7
2014-Jul-20 02:33N 34°35' E 135°04'19 0.9
2014-Jul-19 04:30N 34°40' E 134°42'9 8.3
2014-Jul-19 03:26N 34°34' E 134°49'  

Dump ship's entire track history